createdAt,value
2022-12-28T00:00:32.648Z,2.8
2022-12-28T00:01:39.858Z,2.9
2022-12-28T00:02:46.928Z,2.8
2022-12-28T00:03:54.050Z,2.9
2022-12-28T00:05:04.813Z,2.9
2022-12-28T00:06:12.458Z,2.8
2022-12-28T00:07:19.390Z,2.6
2022-12-28T00:08:26.686Z,2.6
2022-12-28T00:09:33.553Z,2.5
2022-12-28T00:11:07.020Z,2.6
2022-12-28T00:11:47.995Z,2.6
2022-12-28T00:12:55.114Z,2.5
2022-12-28T00:14:02.935Z,2.6
2022-12-28T00:15:10.689Z,2.7
2022-12-28T00:16:19.075Z,2.7
2022-12-28T00:17:29.036Z,2.7
2022-12-28T00:18:36.851Z,2.8
2022-12-28T00:19:44.087Z,2.8
2022-12-28T00:20:51.340Z,2.7
2022-12-28T00:22:01.228Z,2.7
2022-12-28T00:23:08.251Z,2.7
2022-12-28T00:24:15.387Z,2.7
2022-12-28T00:25:22.537Z,2.5
2022-12-28T00:26:29.716Z,2.4
2022-12-28T00:27:36.876Z,2.4
2022-12-28T00:28:44.089Z,2.5
2022-12-28T00:29:51.267Z,2.4
2022-12-28T00:30:58.379Z,2.5
2022-12-28T00:32:05.208Z,2.4
2022-12-28T00:33:12.624Z,2.2
2022-12-28T00:34:20.247Z,2.3
2022-12-28T00:35:27.211Z,2.3
2022-12-28T00:37:07.686Z,2.2
2022-12-28T00:37:41.515Z,2.3
2022-12-28T00:38:48.655Z,2.2
2022-12-28T00:39:56.182Z,2.2
2022-12-28T00:41:03.201Z,2.3
2022-12-28T00:42:10.454Z,2.1
2022-12-28T00:43:17.598Z,2.2
2022-12-28T00:44:24.662Z,2.3
2022-12-28T00:45:31.804Z,2.3
2022-12-28T00:46:39.016Z,2.1
2022-12-28T00:47:46.099Z,2.1
2022-12-28T00:48:53.347Z,2
2022-12-28T00:50:00.586Z,1.9
2022-12-28T00:51:07.784Z,2.1
2022-12-28T00:52:14.991Z,2
2022-12-28T00:53:22.135Z,2
2022-12-28T00:54:29.254Z,2.1
2022-12-28T00:55:36.515Z,2.1
2022-12-28T00:56:43.514Z,2.1
2022-12-28T00:57:51.550Z,1.9
2022-12-28T00:58:58.861Z,2
2022-12-28T01:00:06.635Z,1.9
2022-12-28T01:01:14.409Z,1.9
2022-12-28T01:02:24.051Z,2
2022-12-28T01:03:33.019Z,2
2022-12-28T01:04:39.971Z,1.8
2022-12-28T01:05:47.498Z,1.9
2022-12-28T01:06:54.752Z,1.9
2022-12-28T01:08:02.076Z,2
2022-12-28T01:09:09.249Z,2
2022-12-28T01:10:16.292Z,2
2022-12-28T01:11:23.583Z,1.9
2022-12-28T01:12:36.293Z,1.9
2022-12-28T01:13:40.223Z,2
2022-12-28T01:14:47.445Z,2.1
2022-12-28T01:15:54.651Z,1.9
2022-12-28T01:17:01.774Z,2
2022-12-28T01:18:08.630Z,1.9
2022-12-28T01:19:15.997Z,1.9
2022-12-28T01:20:23.837Z,1.9
2022-12-28T01:21:31.140Z,1.9
2022-12-28T01:22:38.263Z,1.8
2022-12-28T01:23:45.364Z,1.8
2022-12-28T01:24:52.861Z,1.7
2022-12-28T01:26:00.381Z,1.7
2022-12-28T01:27:08.008Z,1.7
2022-12-28T01:28:14.750Z,1.6
2022-12-28T01:29:21.947Z,1.6
2022-12-28T01:30:29.181Z,1.6
2022-12-28T01:31:37.211Z,1.7
2022-12-28T01:32:44.421Z,1.8
2022-12-28T01:33:51.755Z,1.7
2022-12-28T01:34:58.819Z,1.7
2022-12-28T01:36:06.691Z,1.6
2022-12-28T01:37:17.122Z,1.6
2022-12-28T01:38:24.032Z,1.7
2022-12-28T01:39:31.431Z,1.7
2022-12-28T01:40:38.343Z,1.6
2022-12-28T01:41:45.679Z,1.6
2022-12-28T01:42:52.692Z,1.5
2022-12-28T01:43:59.955Z,1.6
2022-12-28T01:45:07.138Z,1.5
2022-12-28T01:46:17.442Z,1.4
2022-12-28T01:47:24.443Z,1.4
2022-12-28T01:48:31.631Z,1.5
2022-12-28T01:49:39.276Z,1.5
2022-12-28T01:50:52.395Z,1.5
2022-12-28T01:51:59.495Z,1.5
2022-12-28T01:53:11.742Z,1.6
2022-12-28T01:54:19.694Z,1.5
2022-12-28T01:55:26.637Z,1.6
2022-12-28T01:56:39.593Z,1.4
2022-12-28T01:57:46.530Z,1.5
2022-12-28T01:58:53.718Z,1.4
2022-12-28T02:00:01.028Z,1.4
2022-12-28T02:01:11.339Z,1.4
2022-12-28T02:02:18.539Z,1.5
2022-12-28T02:03:26.371Z,1.4
2022-12-28T02:04:34.004Z,1.3
2022-12-28T02:05:40.902Z,1.3
2022-12-28T02:06:47.999Z,1.3
2022-12-28T02:07:55.285Z,1.5
2022-12-28T02:09:03.127Z,1.4
2022-12-28T02:10:41.887Z,1.4
2022-12-28T02:11:19.923Z,1.5
2022-12-28T02:12:27.288Z,1.4
2022-12-28T02:13:34.271Z,1.3
2022-12-28T02:14:41.452Z,1.2
2022-12-28T02:15:49.678Z,1.2
2022-12-28T02:16:56.904Z,1.2
2022-12-28T02:18:04.538Z,1.2
2022-12-28T02:19:11.256Z,1.3
2022-12-28T02:20:18.392Z,1.4
2022-12-28T02:21:25.586Z,1.3
2022-12-28T02:22:42.972Z,1.4
2022-12-28T02:23:55.467Z,1.3
2022-12-28T02:25:11.855Z,1.4
2022-12-28T02:26:17.403Z,1.3
2022-12-28T02:27:29.942Z,1.4
2022-12-28T02:28:47.553Z,1.3
2022-12-28T02:30:05.165Z,1.4
2022-12-28T02:31:15.420Z,1.5
2022-12-28T02:32:22.291Z,1.3
2022-12-28T02:33:37.467Z,1.3
2022-12-28T02:34:47.051Z,1.5
2022-12-28T02:36:00.486Z,1.4
2022-12-28T02:37:07.756Z,1.5
2022-12-28T02:38:14.894Z,1.4
2022-12-28T02:39:22.007Z,1.4
2022-12-28T02:40:29.350Z,1.3
2022-12-28T02:41:36.302Z,1.5
2022-12-28T02:42:43.475Z,1.5
2022-12-28T02:43:51.615Z,1.4
2022-12-28T02:44:58.825Z,1.4
2022-12-28T02:46:12.054Z,1.3
2022-12-28T02:47:29.693Z,1.4
2022-12-28T02:48:41.905Z,1.3
2022-12-28T02:49:54.149Z,1.4
2022-12-28T02:51:06.101Z,1.3
2022-12-28T02:52:23.953Z,1.3
2022-12-28T02:53:41.418Z,1.3
2022-12-28T02:54:53.494Z,1.3
2022-12-28T02:56:15.871Z,1.3
2022-12-28T02:57:29.467Z,1.4
2022-12-28T02:58:42.099Z,1.2
2022-12-28T02:59:54.609Z,1.2
2022-12-28T03:01:06.741Z,1.3
2022-12-28T03:02:19.095Z,1.3
2022-12-28T03:03:28.722Z,1.2
2022-12-28T03:04:46.133Z,1.3
2022-12-28T03:05:58.873Z,1.3
2022-12-28T03:07:16.597Z,1.3
2022-12-28T03:08:36.796Z,1.2
2022-12-28T03:09:54.313Z,1.2
2022-12-28T03:11:09.264Z,1.4
2022-12-28T03:12:16.665Z,1.3
2022-12-28T03:13:26.589Z,1.4
2022-12-28T03:14:41.478Z,1.3
2022-12-28T03:15:49.573Z,1.3
2022-12-28T03:16:56.805Z,1.3
2022-12-28T03:18:09.343Z,1.3
2022-12-28T03:19:21.572Z,1.3
2022-12-28T03:20:33.815Z,1.2
2022-12-28T03:21:46.294Z,1.3
2022-12-28T03:22:58.639Z,1.3
2022-12-28T03:24:10.933Z,1.2
2022-12-28T03:25:23.165Z,1.4
2022-12-28T03:26:35.360Z,1.3
2022-12-28T03:27:50.723Z,1.3
2022-12-28T03:29:03.268Z,1.2
2022-12-28T03:30:15.799Z,1.4
2022-12-28T03:31:28.270Z,1.4
2022-12-28T03:32:36.325Z,1.3
2022-12-28T03:33:43.656Z,1.4
2022-12-28T03:34:50.729Z,1.5
2022-12-28T03:35:57.842Z,1.3
2022-12-28T03:37:15.430Z,1.4
2022-12-28T03:38:28.527Z,1.4
2022-12-28T03:39:35.391Z,1.3
2022-12-28T03:40:45.631Z,1.3
2022-12-28T03:41:52.771Z,1.3
2022-12-28T03:43:05.223Z,1.3
2022-12-28T03:44:22.777Z,1.5
2022-12-28T03:45:44.589Z,1.4
2022-12-28T03:46:42.924Z,1.4
2022-12-28T03:47:53.066Z,1.4
2022-12-28T03:49:00.316Z,1.4
2022-12-28T03:50:08.349Z,1.3
2022-12-28T03:51:15.517Z,1.4
2022-12-28T03:52:25.709Z,1.3
2022-12-28T03:53:32.889Z,1.3
2022-12-28T03:54:42.558Z,1.2
2022-12-28T03:55:49.736Z,1.4
2022-12-28T03:56:56.887Z,1.3
2022-12-28T03:58:04.052Z,1.4
2022-12-28T03:59:11.455Z,1.4
2022-12-28T04:00:18.722Z,1.4
2022-12-28T04:01:25.764Z,1.4
2022-12-28T04:02:33.152Z,1.4
2022-12-28T04:03:40.102Z,1.4
2022-12-28T04:04:47.248Z,1.4
2022-12-28T04:05:54.648Z,1.6
2022-12-28T04:07:01.896Z,1.5
2022-12-28T04:08:08.943Z,1.5
2022-12-28T04:09:16.108Z,1.5
2022-12-28T04:10:23.188Z,1.4
2022-12-28T04:11:30.430Z,1.5
2022-12-28T04:12:37.690Z,1.6
2022-12-28T04:13:45.127Z,1.5
2022-12-28T04:14:52.490Z,1.4
2022-12-28T04:15:59.823Z,1.3
2022-12-28T04:17:09.712Z,1.3
2022-12-28T04:18:16.589Z,1.2
2022-12-28T04:19:23.718Z,1.4
2022-12-28T04:20:31.038Z,1.2
2022-12-28T04:21:38.170Z,1.3
2022-12-28T04:22:45.153Z,1.2
2022-12-28T04:23:52.609Z,1.3
2022-12-28T04:24:59.979Z,1.3
2022-12-28T04:26:08.157Z,1.4
2022-12-28T04:27:14.994Z,1.4
2022-12-28T04:28:22.283Z,1.3
2022-12-28T04:29:29.261Z,1.3
2022-12-28T04:30:36.324Z,1.1
2022-12-28T04:31:43.582Z,1.2
2022-12-28T04:32:50.672Z,1.2
2022-12-28T04:33:57.890Z,1.2
2022-12-28T04:35:05.386Z,1.2
2022-12-28T04:36:12.374Z,1.2
2022-12-28T04:37:19.500Z,1.3
2022-12-28T04:38:26.874Z,1.2
2022-12-28T04:39:54.503Z,1.3
2022-12-28T04:40:40.926Z,1.2
2022-12-28T04:41:48.282Z,1.3
2022-12-28T04:42:55.237Z,1.3
2022-12-28T04:44:02.168Z,1.4
2022-12-28T04:45:09.283Z,1.4
2022-12-28T04:46:16.448Z,1.4
2022-12-28T04:47:23.642Z,1.2
2022-12-28T04:48:30.681Z,1.3
2022-12-28T04:49:38.022Z,1.4
2022-12-28T04:50:45.028Z,1.5
2022-12-28T04:51:52.187Z,1.4
2022-12-28T04:52:58.958Z,1.3
2022-12-28T04:54:06.429Z,1.2
2022-12-28T04:55:31.827Z,1.3
2022-12-28T04:56:23.698Z,1.3
2022-12-28T04:57:30.734Z,1.3
2022-12-28T04:58:37.839Z,1.3
2022-12-28T04:59:44.993Z,1.2
2022-12-28T05:00:52.187Z,1.3
2022-12-28T05:01:59.267Z,1.3
2022-12-28T05:03:06.175Z,1.2
2022-12-28T05:04:13.394Z,1.2
2022-12-28T05:05:20.511Z,1.3
2022-12-28T05:06:27.778Z,1.3
2022-12-28T05:07:34.862Z,1.2
2022-12-28T05:08:42.231Z,1.3
2022-12-28T05:09:49.119Z,1.3
2022-12-28T05:10:56.326Z,1.3
2022-12-28T05:12:03.130Z,1.3
2022-12-28T05:13:10.325Z,1.3
2022-12-28T05:14:17.513Z,1.5
2022-12-28T05:15:24.749Z,1.2
2022-12-28T05:16:31.800Z,1.2
2022-12-28T05:17:40.100Z,1.3
2022-12-28T05:18:47.339Z,1.3
2022-12-28T05:19:54.343Z,1.4
2022-12-28T05:21:01.136Z,1.3
2022-12-28T05:22:09.511Z,1.3
2022-12-28T05:23:16.579Z,1.2
2022-12-28T05:24:23.609Z,1.1
2022-12-28T05:25:30.690Z,1.2
2022-12-28T05:26:37.882Z,1.1
2022-12-28T05:27:45.066Z,1.1
2022-12-28T05:28:52.204Z,1.2
2022-12-28T05:29:59.127Z,1.3
2022-12-28T05:31:06.225Z,1.4
2022-12-28T05:32:13.474Z,1.2
2022-12-28T05:33:21.450Z,1.3
2022-12-28T05:34:28.694Z,1.3
2022-12-28T05:35:35.874Z,1.3
2022-12-28T05:36:43.057Z,1.2
2022-12-28T05:37:50.158Z,1.1
2022-12-28T05:38:57.356Z,1.2
2022-12-28T05:40:04.234Z,1.4
2022-12-28T05:41:12.697Z,1.2
2022-12-28T05:42:25.143Z,1.2
2022-12-28T05:43:32.202Z,1.3
2022-12-28T05:44:39.406Z,1.4
2022-12-28T05:45:46.532Z,1.3
2022-12-28T05:46:53.752Z,1.4
2022-12-28T05:48:01.021Z,1.3
2022-12-28T05:49:09.123Z,1.4
2022-12-28T05:50:16.354Z,1.4
2022-12-28T05:51:23.610Z,1.4
2022-12-28T05:52:30.731Z,1.5
2022-12-28T05:53:37.931Z,1.5
2022-12-28T05:54:46.220Z,1.4
2022-12-28T05:55:53.461Z,1.5
2022-12-28T05:57:05.787Z,1.5
2022-12-28T05:58:12.935Z,1.4
2022-12-28T05:59:20.825Z,1.4
2022-12-28T06:00:28.610Z,1.5
2022-12-28T06:01:36.028Z,1.4
2022-12-28T06:02:43.107Z,1.4
2022-12-28T06:03:51.578Z,1.4
2022-12-28T06:04:59.054Z,1.4
2022-12-28T06:06:06.343Z,1.5
2022-12-28T06:07:15.982Z,1.4
2022-12-28T06:08:23.433Z,1.3
2022-12-28T06:09:30.362Z,1.4
2022-12-28T06:10:37.534Z,1.4
2022-12-28T06:11:44.848Z,1.4
2022-12-28T06:12:52.591Z,1.4
2022-12-28T06:14:00.653Z,1.4
2022-12-28T06:15:07.826Z,1.4
2022-12-28T06:16:15.043Z,1.4
2022-12-28T06:17:22.126Z,1.5
2022-12-28T06:18:29.296Z,1.5
2022-12-28T06:19:36.667Z,1.5
2022-12-28T06:20:43.679Z,1.5
2022-12-28T06:21:51.301Z,1.5
2022-12-28T06:22:59.410Z,1.5
2022-12-28T06:24:06.266Z,1.5
2022-12-28T06:25:13.455Z,1.6
2022-12-28T06:26:20.685Z,1.4
2022-12-28T06:27:27.818Z,1.5
2022-12-28T06:28:35.863Z,1.5
2022-12-28T06:29:43.119Z,1.4
2022-12-28T06:30:52.697Z,1.6
2022-12-28T06:31:58.324Z,1.5
2022-12-28T06:33:05.322Z,1.5
2022-12-28T06:34:12.436Z,1.5
2022-12-28T06:35:19.552Z,1.6
2022-12-28T06:36:27.247Z,1.6
2022-12-28T06:37:37.432Z,1.5
2022-12-28T06:38:46.222Z,1.5
2022-12-28T06:39:53.347Z,1.5
2022-12-28T06:41:13.214Z,1.7
2022-12-28T06:42:07.401Z,1.5
2022-12-28T06:43:14.506Z,1.5
2022-12-28T06:44:21.640Z,1.6
2022-12-28T06:45:28.877Z,1.5
2022-12-28T06:46:35.989Z,1.6
2022-12-28T06:47:43.090Z,1.5
2022-12-28T06:48:50.267Z,1.5
2022-12-28T06:49:57.573Z,1.5
2022-12-28T06:51:05.579Z,1.4
2022-12-28T06:52:15.567Z,1.6
2022-12-28T06:53:22.861Z,1.5
2022-12-28T06:54:29.985Z,1.4
2022-12-28T06:55:36.937Z,1.5
2022-12-28T06:56:44.170Z,1.5
2022-12-28T06:57:51.476Z,1.5
2022-12-28T06:59:03.099Z,1.5
2022-12-28T07:00:07.099Z,1.6
2022-12-28T07:01:15.935Z,1.5
2022-12-28T07:02:23.183Z,1.5
2022-12-28T07:03:30.249Z,1.5
2022-12-28T07:04:37.440Z,1.5
2022-12-28T07:05:44.705Z,1.6
2022-12-28T07:06:51.711Z,1.7
2022-12-28T07:07:58.754Z,1.6
2022-12-28T07:09:05.614Z,1.7
2022-12-28T07:10:12.746Z,1.8
2022-12-28T07:11:20.512Z,1.6
2022-12-28T07:12:28.003Z,1.7
2022-12-28T07:13:35.261Z,1.6
2022-12-28T07:14:42.509Z,1.6
2022-12-28T07:15:49.688Z,1.6
2022-12-28T07:16:57.598Z,1.6
2022-12-28T07:18:04.744Z,1.8
2022-12-28T07:19:12.962Z,1.7
2022-12-28T07:20:20.069Z,1.7
2022-12-28T07:21:27.160Z,1.7
2022-12-28T07:22:34.290Z,1.7
2022-12-28T07:23:41.462Z,1.9
2022-12-28T07:24:48.831Z,1.9
2022-12-28T07:25:55.851Z,1.8
2022-12-28T07:27:03.161Z,1.8
2022-12-28T07:28:10.251Z,1.7
2022-12-28T07:29:17.493Z,1.7
2022-12-28T07:30:24.771Z,1.7
2022-12-28T07:31:33.788Z,1.9
2022-12-28T07:32:39.503Z,1.8
2022-12-28T07:33:46.676Z,1.8
2022-12-28T07:34:53.725Z,1.8
2022-12-28T07:36:00.626Z,1.8
2022-12-28T07:37:07.762Z,1.8
2022-12-28T07:38:19.542Z,1.8
2022-12-28T07:39:22.199Z,1.9
2022-12-28T07:40:29.261Z,1.9
2022-12-28T07:41:36.417Z,2
2022-12-28T07:42:43.627Z,2
2022-12-28T07:43:50.789Z,2
2022-12-28T07:44:58.032Z,2.2
2022-12-28T07:46:05.283Z,2
2022-12-28T07:47:12.462Z,2
2022-12-28T07:48:19.630Z,2
2022-12-28T07:49:26.762Z,2
2022-12-28T07:50:37.735Z,2.1
2022-12-28T07:51:41.241Z,2.1
2022-12-28T07:52:48.186Z,2.1
2022-12-28T07:53:55.365Z,2.1
2022-12-28T07:55:02.323Z,2.2
2022-12-28T07:56:09.459Z,2
2022-12-28T07:57:16.606Z,2.1
2022-12-28T07:58:23.786Z,2.1
2022-12-28T07:59:31.430Z,2.3
2022-12-28T08:00:38.137Z,2.2
2022-12-28T08:01:45.274Z,2.3
2022-12-28T08:02:55.424Z,2.3
2022-12-28T08:04:02.410Z,2.4
2022-12-28T08:05:12.062Z,2.1
2022-12-28T08:06:19.334Z,2.2
2022-12-28T08:07:26.562Z,2.2
2022-12-28T08:08:33.535Z,2.3
2022-12-28T08:09:40.707Z,2.1
2022-12-28T08:10:48.367Z,2.3
2022-12-28T08:11:56.717Z,2.3
2022-12-28T08:13:04.766Z,2.4
2022-12-28T08:14:12.523Z,2.4
2022-12-28T08:15:19.676Z,2.5
2022-12-28T08:16:27.066Z,2.5
2022-12-28T08:17:34.847Z,2.6
2022-12-28T08:18:41.765Z,2.5
2022-12-28T08:19:48.889Z,2.5
2022-12-28T08:20:56.107Z,2.3
2022-12-28T08:22:03.469Z,2.4
2022-12-28T08:23:11.256Z,2.4
2022-12-28T08:24:18.305Z,2.4
2022-12-28T08:25:25.482Z,2.3
2022-12-28T08:26:33.613Z,2.3
2022-12-28T08:27:40.950Z,2.4
2022-12-28T08:28:48.002Z,2.4
2022-12-28T08:29:55.914Z,2.3
2022-12-28T08:31:03.052Z,2.4
2022-12-28T08:32:15.192Z,2.4
2022-12-28T08:33:22.433Z,2.4
2022-12-28T08:34:29.449Z,2.5
2022-12-28T08:35:36.678Z,2.6
2022-12-28T08:36:44.012Z,2.5
2022-12-28T08:37:50.963Z,2.5
2022-12-28T08:38:58.066Z,2.5
2022-12-28T08:40:05.957Z,2.5
2022-12-28T08:41:13.696Z,2.5
2022-12-28T08:42:20.945Z,2.5
2022-12-28T08:43:28.029Z,2.5
2022-12-28T08:44:35.161Z,2.5
2022-12-28T08:45:42.136Z,2.6
2022-12-28T08:46:50.504Z,2.8
2022-12-28T08:47:57.481Z,2.8
2022-12-28T08:49:04.504Z,2.7
2022-12-28T08:50:12.276Z,2.8
2022-12-28T08:51:18.904Z,2.8
2022-12-28T08:52:31.176Z,2.8
2022-12-28T08:53:38.546Z,2.8
2022-12-28T08:54:45.801Z,2.8
2022-12-28T08:55:52.988Z,3
2022-12-28T08:56:59.890Z,2.9
2022-12-28T08:58:07.045Z,2.8
2022-12-28T08:59:14.532Z,2.9
2022-12-28T09:00:21.997Z,2.9
2022-12-28T09:01:29.428Z,2.9
2022-12-28T09:02:39.779Z,2.9
2022-12-28T09:03:46.572Z,2.9
2022-12-28T09:04:53.954Z,3.1
2022-12-28T09:06:04.737Z,3.1
2022-12-28T09:07:15.453Z,3.1
2022-12-28T09:08:23.946Z,3.2
2022-12-28T09:09:31.182Z,3.1
2022-12-28T09:10:38.705Z,2.8
2022-12-28T09:11:45.536Z,2.9
2022-12-28T09:12:52.466Z,3
2022-12-28T09:13:59.479Z,2.9
2022-12-28T09:15:06.643Z,3
2022-12-28T09:16:13.938Z,3
2022-12-28T09:17:20.940Z,3
2022-12-28T09:18:28.065Z,3.1
2022-12-28T09:19:35.362Z,3
2022-12-28T09:20:47.634Z,2.9
2022-12-28T09:21:49.611Z,3
2022-12-28T09:22:56.747Z,3.1
2022-12-28T09:24:03.655Z,3.1
2022-12-28T09:25:10.854Z,3.2
2022-12-28T09:26:18.128Z,3.1
2022-12-28T09:27:25.123Z,3.1
2022-12-28T09:28:32.247Z,3.1
2022-12-28T09:29:39.423Z,3.2
2022-12-28T09:30:46.611Z,3.1
2022-12-28T09:31:53.911Z,3
2022-12-28T09:33:01.290Z,3.1
2022-12-28T09:35:20.836Z,3
2022-12-28T09:36:27.775Z,2.9
2022-12-28T09:37:37.570Z,2.9
2022-12-28T09:38:44.725Z,2.9
2022-12-28T09:39:52.993Z,3
2022-12-28T09:40:58.963Z,3
2022-12-28T09:42:06.190Z,3
2022-12-28T09:43:16.062Z,3
2022-12-28T09:44:23.399Z,3
2022-12-28T09:45:30.385Z,3
2022-12-28T09:46:37.593Z,3.1
2022-12-28T09:47:49.894Z,3.1
2022-12-28T09:48:57.007Z,3.1
2022-12-28T09:50:03.912Z,3.1
2022-12-28T09:51:19.371Z,3.1
2022-12-28T09:52:26.371Z,3.1
2022-12-28T09:53:36.134Z,3.1
2022-12-28T09:54:43.297Z,3.2
2022-12-28T09:55:50.460Z,3.2
2022-12-28T09:57:08.372Z,3.2
2022-12-28T09:58:15.238Z,3.1
2022-12-28T09:59:22.380Z,3.2
2022-12-28T10:00:29.596Z,3.2
2022-12-28T10:01:41.895Z,3.3
2022-12-28T10:02:49.089Z,3.2
2022-12-28T10:03:56.129Z,3.2
2022-12-28T10:05:03.199Z,3.2
2022-12-28T10:06:10.278Z,3.2
2022-12-28T10:07:17.357Z,3.2
2022-12-28T10:08:24.509Z,3.2
2022-12-28T10:09:31.646Z,3.2
2022-12-28T10:10:38.859Z,3.3
2022-12-28T10:11:46.136Z,3.4
2022-12-28T10:12:53.167Z,3.3
2022-12-28T10:14:00.219Z,3.4
2022-12-28T10:15:07.203Z,3.4
2022-12-28T10:16:16.987Z,3.3
2022-12-28T10:17:24.034Z,3.4
2022-12-28T10:18:34.658Z,3.5
2022-12-28T10:19:38.487Z,3.4
2022-12-28T10:20:45.595Z,3.6
2022-12-28T10:21:52.672Z,3.5
2022-12-28T10:22:59.766Z,3.6
2022-12-28T10:24:31.171Z,3.7
2022-12-28T10:25:13.805Z,3.8
2022-12-28T10:26:20.973Z,3.9
2022-12-28T10:27:28.187Z,3.9
2022-12-28T10:28:35.267Z,4
2022-12-28T10:29:45.056Z,4.3
2022-12-28T10:30:54.876Z,4.3
2022-12-28T10:32:06.705Z,4.6
2022-12-28T10:33:14.153Z,4.6
2022-12-28T10:34:21.035Z,4.8
2022-12-28T10:35:28.175Z,4.9
2022-12-28T10:36:45.602Z,5
2022-12-28T10:37:52.686Z,5.2
2022-12-28T10:38:59.883Z,5.3
2022-12-28T10:40:06.699Z,5.3
2022-12-28T10:41:13.933Z,5.2
2022-12-28T10:42:21.200Z,5.3
2022-12-28T10:43:31.413Z,5.6
2022-12-28T10:44:43.527Z,5.7
2022-12-28T10:45:50.701Z,5.6
2022-12-28T10:46:58.035Z,5.6
2022-12-28T10:48:05.197Z,5.7
2022-12-28T10:49:15.467Z,5.9
2022-12-28T10:50:36.459Z,5.9
2022-12-28T10:51:36.973Z,5.9
2022-12-28T10:52:44.055Z,5.9
2022-12-28T10:53:51.235Z,6
2022-12-28T10:55:07.822Z,5.8
2022-12-28T10:56:08.277Z,5.9
2022-12-28T10:57:15.441Z,5.8
2022-12-28T10:58:31.576Z,5.7
2022-12-28T10:59:29.731Z,5.6
2022-12-28T11:00:36.922Z,5.5
2022-12-28T11:01:44.237Z,5.6
2022-12-28T11:02:51.292Z,5.6
2022-12-28T11:03:57.901Z,5.7
2022-12-28T11:05:05.177Z,5.5
2022-12-28T11:06:12.293Z,5.5
2022-12-28T11:07:24.557Z,5.6
2022-12-28T11:08:31.702Z,5.5
2022-12-28T11:09:38.823Z,5.4
2022-12-28T11:10:46.010Z,5.4
2022-12-28T11:11:53.136Z,5.4
2022-12-28T11:12:59.959Z,5.3
2022-12-28T11:14:07.347Z,5.5
2022-12-28T11:15:19.443Z,5.5
2022-12-28T11:16:26.599Z,5.5
2022-12-28T11:17:33.784Z,5.5
2022-12-28T11:18:40.868Z,5.5
2022-12-28T11:19:47.991Z,5.4
2022-12-28T11:20:57.689Z,5.4
2022-12-28T11:22:04.524Z,5.4
2022-12-28T11:23:14.141Z,5.4
2022-12-28T11:24:26.469Z,5.5
2022-12-28T11:25:33.664Z,5.6
2022-12-28T11:26:40.762Z,5.6
2022-12-28T11:27:47.978Z,5.7
2022-12-28T11:28:55.170Z,5.6
2022-12-28T11:30:02.036Z,5.8
2022-12-28T11:31:09.192Z,5.8
2022-12-28T11:32:21.418Z,5.8
2022-12-28T11:33:28.612Z,5.7
2022-12-28T11:34:35.672Z,5.7
2022-12-28T11:35:42.889Z,5.7
2022-12-28T11:36:50.099Z,5.7
2022-12-28T11:37:57.361Z,5.7
2022-12-28T11:39:04.572Z,5.6
2022-12-28T11:40:21.989Z,5.4
2022-12-28T11:41:37.303Z,5.5
2022-12-28T11:42:44.480Z,5.5
2022-12-28T11:43:56.680Z,5.4
2022-12-28T11:45:03.587Z,5.4
2022-12-28T11:46:15.942Z,5.4
2022-12-28T11:47:28.398Z,5.3
2022-12-28T11:48:32.742Z,5.3
2022-12-28T11:49:45.427Z,5.3
2022-12-28T11:50:52.614Z,5.3
2022-12-28T11:51:59.994Z,5.3
2022-12-28T11:53:17.599Z,5.3
2022-12-28T11:54:24.493Z,5.3
2022-12-28T11:55:39.402Z,5.3
2022-12-28T11:56:46.758Z,5.3
2022-12-28T11:57:53.745Z,5.3
2022-12-28T11:59:01.031Z,5.3
2022-12-28T12:00:08.253Z,5.1
2022-12-28T12:01:20.638Z,5.1
2022-12-28T12:02:30.822Z,5
2022-12-28T12:03:40.992Z,5
2022-12-28T12:04:58.327Z,5
2022-12-28T12:06:05.412Z,5
2022-12-28T12:07:12.431Z,5.1
2022-12-28T12:08:22.225Z,5.1
2022-12-28T12:09:34.324Z,5
2022-12-28T12:10:41.551Z,5.1
2022-12-28T12:11:48.724Z,5.1
2022-12-28T12:12:55.863Z,5.1
2022-12-28T12:14:02.727Z,5.1
2022-12-28T12:15:09.882Z,5.1
2022-12-28T12:16:17.335Z,5.1
2022-12-28T12:17:33.353Z,5.1
2022-12-28T12:18:44.685Z,5
2022-12-28T12:19:54.352Z,5
2022-12-28T12:21:10.217Z,5.1
2022-12-28T12:22:14.098Z,5
2022-12-28T12:23:24.255Z,5.1
2022-12-28T12:24:31.432Z,5.1
2022-12-28T12:25:38.540Z,5.1
2022-12-28T12:26:48.280Z,5.1
2022-12-28T12:28:00.692Z,5.2
2022-12-28T12:29:16.289Z,5
2022-12-28T12:30:26.411Z,5.1
2022-12-28T12:31:33.487Z,5.1
2022-12-28T12:32:43.252Z,5
2022-12-28T12:33:55.391Z,5.1
2022-12-28T12:35:10.469Z,4.9
2022-12-28T12:36:17.620Z,4.9
2022-12-28T12:37:35.015Z,5
2022-12-28T12:38:52.435Z,5
2022-12-28T12:40:04.369Z,5
2022-12-28T12:41:21.732Z,5
2022-12-28T12:42:34.033Z,5.1
2022-12-28T12:43:43.716Z,5.1
2022-12-28T12:44:53.463Z,5.1
2022-12-28T12:46:06.042Z,5.1
2022-12-28T12:47:23.346Z,5.1
2022-12-28T12:48:35.608Z,5.1
2022-12-28T12:49:51.069Z,5.3
2022-12-28T12:51:03.615Z,5.2
2022-12-28T12:52:18.783Z,5.1
2022-12-28T12:53:31.058Z,5.2
2022-12-28T12:54:48.531Z,5.2
2022-12-28T12:56:00.484Z,5.4
2022-12-28T12:57:10.115Z,5.3
2022-12-28T12:58:24.928Z,5.2
2022-12-28T12:59:37.217Z,5.3
2022-12-28T13:00:52.096Z,5.2
2022-12-28T13:02:04.233Z,5.2
2022-12-28T13:03:16.430Z,5.2
2022-12-28T13:04:23.496Z,5.1
2022-12-28T13:05:30.726Z,5.1
2022-12-28T13:06:38.092Z,4.9
2022-12-28T13:07:45.150Z,5
2022-12-28T13:08:54.429Z,5
2022-12-28T13:10:02.940Z,5
2022-12-28T13:11:10.274Z,4.9
2022-12-28T13:12:17.381Z,5
2022-12-28T13:13:24.549Z,5
2022-12-28T13:14:31.739Z,5.1
2022-12-28T13:15:39.062Z,5.1
2022-12-28T13:16:46.132Z,5.1
2022-12-28T13:17:55.383Z,5.1
2022-12-28T13:19:08.231Z,4.9
2022-12-28T13:20:15.503Z,4.8
2022-12-28T13:21:22.556Z,4.8
2022-12-28T13:22:29.733Z,4.9
2022-12-28T13:23:36.829Z,4.8
2022-12-28T13:24:46.568Z,4.9
2022-12-28T13:25:53.667Z,4.8
2022-12-28T13:27:07.700Z,4.8
2022-12-28T13:28:10.746Z,4.8
2022-12-28T13:29:25.645Z,4.8
2022-12-28T13:30:37.917Z,4.8
2022-12-28T13:31:45.053Z,4.7
2022-12-28T13:32:54.784Z,4.8
2022-12-28T13:34:01.660Z,4.7
2022-12-28T13:35:08.758Z,4.8
2022-12-28T13:36:20.991Z,4.8
2022-12-28T13:37:27.709Z,4.9
2022-12-28T13:38:34.914Z,4.9
2022-12-28T13:39:42.709Z,4.8
2022-12-28T13:40:49.243Z,4.5
2022-12-28T13:41:56.334Z,4.5
2022-12-28T13:43:06.176Z,4.6
2022-12-28T13:44:23.591Z,4.5
2022-12-28T13:45:42.941Z,4.6
2022-12-28T13:46:48.066Z,4.6
2022-12-28T13:47:57.851Z,4.5
2022-12-28T13:49:04.689Z,4.4
2022-12-28T13:50:11.809Z,4.6
2022-12-28T13:51:21.539Z,4.6
2022-12-28T13:52:28.898Z,4.5
2022-12-28T13:53:40.929Z,4.4
2022-12-28T13:54:51.176Z,4.5
2022-12-28T13:55:58.447Z,4.3
2022-12-28T13:57:36.231Z,4.4
2022-12-28T13:58:12.389Z,4.3
2022-12-28T13:59:19.491Z,4.3
2022-12-28T14:00:26.716Z,4.3
2022-12-28T14:01:34.035Z,4.3
2022-12-28T14:02:41.042Z,4.4
2022-12-28T14:03:50.239Z,4.5
2022-12-28T14:05:00.659Z,4.3
2022-12-28T14:06:07.988Z,4.4
2022-12-28T14:07:14.944Z,4.5
2022-12-28T14:08:22.081Z,4.5
2022-12-28T14:09:29.286Z,4.4
2022-12-28T14:10:36.332Z,4.3
2022-12-28T14:11:43.665Z,4.3
2022-12-28T14:12:50.868Z,4.4
2022-12-28T14:13:57.866Z,4.3
2022-12-28T14:15:04.737Z,4.2
2022-12-28T14:16:12.364Z,4.2
2022-12-28T14:17:19.711Z,4.3
2022-12-28T14:19:39.064Z,4.3
2022-12-28T14:20:45.689Z,4.3
2022-12-28T14:21:52.873Z,4.4
2022-12-28T14:23:00.016Z,4.4
2022-12-28T14:24:17.572Z,4.4
2022-12-28T14:25:24.444Z,4.3
2022-12-28T14:26:31.393Z,4.3
2022-12-28T14:27:38.593Z,4.4
2022-12-28T14:28:45.715Z,4.4
2022-12-28T14:29:55.437Z,4.4
2022-12-28T14:31:02.367Z,4.4
2022-12-28T14:32:09.504Z,4.4
2022-12-28T14:33:22.443Z,4.4
2022-12-28T14:34:23.747Z,4.5
2022-12-28T14:35:30.536Z,4.4
2022-12-28T14:36:37.560Z,4.5
2022-12-28T14:37:44.689Z,4.4
2022-12-28T14:38:57.238Z,4.4
2022-12-28T14:40:01.313Z,4.4
2022-12-28T14:41:09.105Z,4.4
2022-12-28T14:42:21.216Z,4.5
2022-12-28T14:43:27.938Z,4.5
2022-12-28T14:44:35.201Z,4.4
2022-12-28T14:46:05.541Z,4.4
2022-12-28T14:46:49.400Z,4.4
2022-12-28T14:47:56.623Z,4.4
2022-12-28T14:49:03.439Z,4.5
2022-12-28T14:50:20.788Z,4.5
2022-12-28T14:51:27.940Z,4.5
2022-12-28T14:52:35.034Z,4.5
2022-12-28T14:53:47.472Z,4.5
2022-12-28T14:55:04.965Z,4.5
2022-12-28T14:56:22.370Z,4.5
2022-12-28T14:57:29.485Z,4.6
2022-12-28T14:58:39.189Z,4.5
2022-12-28T14:59:51.417Z,4.6
2022-12-28T15:01:08.516Z,4.6
2022-12-28T15:02:15.772Z,4.6
2022-12-28T15:03:33.102Z,4.6
2022-12-28T15:04:50.862Z,4.6
2022-12-28T15:05:57.765Z,4.6
2022-12-28T15:07:04.905Z,4.5
2022-12-28T15:08:12.015Z,4.5
2022-12-28T15:09:18.724Z,4.5
2022-12-28T15:10:25.776Z,4.5
2022-12-28T15:11:32.477Z,4.5
2022-12-28T15:12:39.621Z,4.5
2022-12-28T15:13:46.694Z,4.5
2022-12-28T15:14:53.384Z,4.5
2022-12-28T15:16:00.600Z,4.6
2022-12-28T15:17:10.456Z,4.6
2022-12-28T15:18:17.727Z,4.6
2022-12-28T15:19:25.022Z,4.5
2022-12-28T15:20:32.016Z,4.5
2022-12-28T15:21:38.969Z,4.5
2022-12-28T15:22:45.647Z,4.5
2022-12-28T15:23:52.453Z,4.5
2022-12-28T15:24:59.428Z,4.5
2022-12-28T15:26:06.441Z,4.5
2022-12-28T15:27:13.584Z,4.5
2022-12-28T15:28:20.663Z,4.5
2022-12-28T15:29:47.780Z,4.5
2022-12-28T15:30:34.546Z,4.5
2022-12-28T15:31:44.795Z,4.4
2022-12-28T15:32:51.864Z,4.5
2022-12-28T15:33:59.235Z,4.5
2022-12-28T15:35:06.625Z,4.5
2022-12-28T15:36:17.207Z,4.5
2022-12-28T15:37:20.624Z,4.5
2022-12-28T15:38:27.280Z,4.5
2022-12-28T15:39:34.470Z,4.5
2022-12-28T15:40:41.808Z,4.4
2022-12-28T15:41:48.798Z,4.3
2022-12-28T15:42:55.929Z,4.3
2022-12-28T15:44:02.817Z,4.4
2022-12-28T15:45:09.944Z,4.3
2022-12-28T15:46:17.233Z,4.3
2022-12-28T15:47:24.383Z,4.3
2022-12-28T15:48:31.503Z,4.3